Time;durP1;ratioP1;P1;durP2;ratioP2;P2;SDS_P1;SDS_P2;PMS_P1;PMS_P2;Temp;Humidity;BMP_temperature;BMP_pressure;BME280_temperature;BME280_humidity;BME280_pressure;Samples;Min_cycle;Max_cycle;Signal;HPM_P1;HPM_P2
2022/03/25 00:00:00;;;;;;;;;;;;;;;;;;350143;28;953;-79
2022/03/25 00:00:12;;;;;;;;;;;;;;;;;;350184;28;817;-78
2022/03/25 00:00:25;;;;;;;;;;;;;;;;;;350084;28;798;-78
2022/03/25 00:00:36;;;;;;;;;;;;;;;;;;350143;28;924;-79
2022/03/25 00:00:47;;;;;;;;;;;;;;;;;;350171;28;1824;-78
2022/03/25 00:00:57;;;;;;;;;;;;;;;;;;351092;28;1654;-79
2022/03/25 00:01:07;;;;;;;;;;;;;;;;;;350253;28;1708;-79
2022/03/25 00:01:18;;;;;;;;;;;;;;;;;;350065;28;1080;-78
2022/03/25 00:01:28;;;;;;;;;;;;;;;;;;350113;28;793;-78
2022/03/25 00:01:38;;;;;;;;;;;;;;;;;;350156;28;988;-79
2022/03/25 00:01:49;;;;;;;;;;;;;;;;;;350148;28;965;-78
2022/03/25 00:01:59;;;;;;;;;;;;;;;;;;350023;28;979;-79
2022/03/25 00:02:09;;;;;;;;;;;;;;;;;;350162;28;988;-79
2022/03/25 00:02:20;;;;;;;;;;;;;;;;;;350071;28;1153;-79
2022/03/25 00:02:30;;;;;;;;;;;;;;;;;;350135;28;917;-78
2022/03/25 00:02:41;;;;;;;;;;;;;;;;;;350138;28;822;-79
2022/03/25 00:02:51;;;;;;;;;;;;;;;;;;350147;28;953;-78
2022/03/25 00:03:02;;;;;;;;;;;;;;;;;;350158;28;957;-78
2022/03/25 00:03:12;;;;;;;;;;;;;;;;;;350150;28;941;-78
2022/03/25 00:03:23;;;;;;;;;;;;;;;;;;350075;28;984;-78
2022/03/25 00:03:33;;;;;;;;;;;;;;;;;;350115;28;909;-78
2022/03/25 00:03:43;;;;;;;;;;;;;;;;;;350144;28;904;-79
2022/03/25 00:03:53;;;;;;;;;;;;;;;;;;351284;28;1709;-78
2022/03/25 00:04:03;;;;;;;;;;;;;;;;;;351491;28;917;-78
2022/03/25 00:04:14;;;;;;;;;;;;;;;;;;351498;28;924;-79
2022/03/25 00:04:24;;;;;;;;;;;;;;;;;;351535;28;959;-78
2022/03/25 00:04:34;;;;;;;;;;;;;;;;;;351509;28;857;-78
2022/03/25 00:04:44;;;;;;;;;;;;;;;;;;351560;28;932;-78
2022/03/25 00:04:55;;;;;;;;;;;;;;;;;;351502;28;991;-78
2022/03/25 00:05:05;;;;;;;;;;;;;;;;;;351496;28;890;-78
2022/03/25 00:05:16;;;;;;;;;;;;;;;;;;351521;28;1044;-78
2022/03/25 00:05:26;;;;;;;;;;;;;;;;;;351555;28;921;-78
2022/03/25 00:05:36;;;;;;;;;;;;;;;;;;351536;28;892;-78
2022/03/25 00:05:46;;;;;;;;;;;;;;;;;;351469;28;933;-79
2022/03/25 00:05:57;;;;;;;;;;;;;;;;;;351450;28;1136;-79
2022/03/25 00:06:08;;;;;;;;;;;;;;;;;;351509;28;857;-78
2022/03/25 00:06:19;;;;;;;;;;;;;;;;;;351534;28;809;-78
2022/03/25 00:06:29;;;;;;;;;;;;;;;;;;351525;27;838;-79
2022/03/25 00:06:40;;;;;;;;;;;;;;;;;;351523;28;808;-79
2022/03/25 00:06:50;;;;;;;;;;;;;;;;;;351525;28;941;-79
2022/03/25 00:07:00;;;;;;;;;;;;;;;;;;351550;28;889;-78
2022/03/25 00:07:11;;;;;;;;;;;;;;;;;;351505;27;905;-79
2022/03/25 00:07:21;;;;;;;;;;;;;;;;;;351280;28;1528;-78
2022/03/25 00:07:32;;;;;;;;;;;;;;;;;;351424;28;1578;-78
2022/03/25 00:07:43;;;;;;;;;;;;;;;;;;350170;28;944;-78
2022/03/25 00:07:53;;;;;;;;;;;;;;;;;;350124;28;831;-79
2022/03/25 00:08:03;;;;;;;;;;;;;;;;;;350132;28;991;-79
2022/03/25 00:08:14;;;;;;;;;;;;;;;;;;350085;28;873;-78
2022/03/25 00:08:24;;;;;;;;;;;;;;;;;;350054;28;1099;-79
2022/03/25 00:08:34;;;;;;;;;;;;;;;;;;350022;28;1026;-78
2022/03/25 00:08:44;;;;;;;;;;;;;;;;;;350119;28;909;-78
2022/03/25 00:08:54;;;;;;;;;;;;;;;;;;350091;28;848;-78
2022/03/25 00:09:05;;;;;;;;;;;;;;;;;;350111;28;1024;-79
2022/03/25 00:09:15;;;;;;;;;;;;;;;;;;350095;28;908;-79
2022/03/25 00:09:25;;;;;;;;;;;;;;;;;;350125;28;921;-78
2022/03/25 00:09:35;;;;;;;;;;;;;;;;;;350055;28;997;-78
2022/03/25 00:09:45;;;;;;;;;;;;;;;;;;350158;28;838;-79
2022/03/25 00:09:56;;;;;;;;;;;;;;;;;;350096;28;972;-78
2022/03/25 00:10:06;;;;;;;;;;;;;;;;;;350105;28;1019;-79
2022/03/25 00:10:16;;;;;;;;;;;;;;;;;;350063;28;979;-78
2022/03/25 00:10:27;;;;;;;;;;;;;;;;;;350113;28;1075;-79
2022/03/25 00:10:37;;;;;;;;;;;;;;;;;;350144;28;865;-79
2022/03/25 00:10:47;;;;;;;;;;;;;;;;;;350070;28;924;-79
2022/03/25 00:10:57;;;;;;;;;;;;;;;;;;350094;28;969;-78
2022/03/25 00:11:08;;;;;;;;;;;;;;;;;;350159;28;778;-79
2022/03/25 00:11:18;;;;;;;;;;;;;;;;;;350085;28;980;-78
2022/03/25 00:11:28;;;;;;;;;;;;;;;;;;350143;28;918;-79
2022/03/25 00:11:38;;;;;;;;;;;;;;;;;;350070;28;964;-79
2022/03/25 00:11:48;;;;;;;;;;;;;;;;;;350612;28;1690;-79
2022/03/25 00:11:59;;;;;;;;;;;;;;;;;;350148;28;933;-79
2022/03/25 00:12:09;;;;;;;;;;;;;;;;;;350116;28;976;-78
2022/03/25 00:12:19;;;;;;;;;;;;;;;;;;350083;28;905;-78
2022/03/25 00:12:30;;;;;;;;;;;;;;;;;;350077;28;878;-78
2022/03/25 00:12:40;;;;;;;;;;;;;;;;;;350095;28;925;-78
2022/03/25 00:12:51;;;;;;;;;;;;;;;;;;350145;28;964;-78
2022/03/25 00:13:01;;;;;;;;;;;;;;;;;;349955;28;1971;-78
2022/03/25 00:13:12;;;;;;;;;;;;;;;;;;350118;28;790;-78
2022/03/25 00:13:22;;;;;;;;;;;;;;;;;;350120;28;993;-78
2022/03/25 00:13:33;;;;;;;;;;;;;;;;;;350141;28;858;-78
2022/03/25 00:13:43;;;;;;;;;;;;;;;;;;350108;28;916;-78
2022/03/25 00:13:54;;;;;;;;;;;;;;;;;;350079;28;794;-78
2022/03/25 00:14:04;;;;;;;;;;;;;;;;;;350129;28;992;-78
2022/03/25 00:14:14;;;;;;;;;;;;;;;;;;350165;28;972;-79
2022/03/25 00:14:25;;;;;;;;;;;;;;;;;;350120;28;968;-78
2022/03/25 00:14:35;;;;;;;;;;;;;;;;;;350027;28;960;-78
2022/03/25 00:14:46;;;;;;;;;;;;;;;;;;350068;28;1027;-79
2022/03/25 00:14:56;;;;;;;;;;;;;;;;;;350076;28;1761;-78
2022/03/25 00:15:06;;;;;;;;;;;;;;;;;;350053;28;1784;-78
2022/03/25 00:15:17;;;;;;;;;;;;;;;;;;351376;28;1733;-78
2022/03/25 00:15:27;;;;;;;;;;;;;;;;;;351313;27;1787;-78
2022/03/25 00:15:37;;;;;;;;;;;;;;;;;;350358;28;1736;-78
2022/03/25 00:15:47;;;;;;;;;;;;;;;;;;351105;28;1720;-78
2022/03/25 00:15:58;;;;;;;;;;;;;;;;;;351526;28;925;-79
2022/03/25 00:16:08;;;;;;;;;;;;;;;;;;351490;28;972;-78
2022/03/25 00:16:18;;;;;;;;;;;;;;;;;;351412;28;1068;-79
2022/03/25 00:16:29;;;;;;;;;;;;;;;;;;351361;28;1011;-78
2022/03/25 00:16:39;;;;;;;;;;;;;;;;;;351528;28;929;-78
2022/03/25 00:16:49;;;;;;;;;;;;;;;;;;351459;28;916;-79
2022/03/25 00:17:00;;;;;;;;;;;;;;;;;;351541;28;857;-78
2022/03/25 00:17:10;;;;;;;;;;;;;;;;;;351514;28;1243;-78
2022/03/25 00:17:20;;;;;;;;;;;;;;;;;;351354;28;1006;-78
2022/03/25 00:17:30;;;;;;;;;;;;;;;;;;351524;28;995;-78
2022/03/25 00:17:41;;;;;;;;;;;;;;;;;;351512;28;905;-78
2022/03/25 00:17:51;;;;;;;;;;;;;;;;;;351347;28;1008;-78
2022/03/25 00:18:01;;;;;;;;;;;;;;;;;;351536;28;869;-78
2022/03/25 00:18:12;;;;;;;;;;;;;;;;;;351551;28;924;-77
2022/03/25 00:18:22;;;;;;;;;;;;;;;;;;351488;28;940;-78
2022/03/25 00:18:33;;;;;;;;;;;;;;;;;;351463;28;980;-78
2022/03/25 00:18:43;;;;;;;;;;;;;;;;;;351515;28;997;-78
2022/03/25 00:18:54;;;;;;;;;;;;;;;;;;351082;28;1698;-78
2022/03/25 00:19:04;;;;;;;;;;;;;;;;;;350042;28;1048;-78
2022/03/25 00:19:14;;;;;;;;;;;;;;;;;;350123;28;964;-78
2022/03/25 00:19:25;;;;;;;;;;;;;;;;;;350116;28;971;-78
2022/03/25 00:19:35;;;;;;;;;;;;;;;;;;350022;28;1100;-78
2022/03/25 00:19:45;;;;;;;;;;;;;;;;;;350129;28;971;-78
2022/03/25 00:19:55;;;;;;;;;;;;;;;;;;350063;28;861;-78
2022/03/25 00:20:06;;;;;;;;;;;;;;;;;;350129;28;850;-78
2022/03/25 00:20:17;;;;;;;;;;;;;;;;;;350084;28;996;-78
2022/03/25 00:20:27;;;;;;;;;;;;;;;;;;350122;28;917;-78
2022/03/25 00:20:38;;;;;;;;;;;;;;;;;;350081;28;940;-78
2022/03/25 00:20:49;;;;;;;;;;;;;;;;;;350042;28;928;-78
2022/03/25 00:20:59;;;;;;;;;;;;;;;;;;351430;28;1561;-78
2022/03/25 00:21:10;;;;;;;;;;;;;;;;;;351475;28;1027;-78
2022/03/25 00:21:20;;;;;;;;;;;;;;;;;;351444;28;983;-78
2022/03/25 00:21:31;;;;;;;;;;;;;;;;;;351528;28;928;-78
2022/03/25 00:21:41;;;;;;;;;;;;;;;;;;351370;28;1008;-78
2022/03/25 00:21:52;;;;;;;;;;;;;;;;;;351523;28;924;-78
2022/03/25 00:22:02;;;;;;;;;;;;;;;;;;351409;28;1540;-78
2022/03/25 00:22:12;;;;;;;;;;;;;;;;;;351463;28;1708;-78
2022/03/25 00:22:23;;;;;;;;;;;;;;;;;;351501;28;963;-78
2022/03/25 00:22:33;;;;;;;;;;;;;;;;;;351461;28;952;-78
2022/03/25 00:22:43;;;;;;;;;;;;;;;;;;351446;28;991;-78
2022/03/25 00:22:53;;;;;;;;;;;;;;;;;;351461;28;1016;-78
2022/03/25 00:23:04;;;;;;;;;;;;;;;;;;351446;28;984;-78
2022/03/25 00:23:14;;;;;;;;;;;;;;;;;;351658;28;841;-78
2022/03/25 00:23:25;;;;;;;;;;;;;;;;;;351463;28;983;-78
2022/03/25 00:23:35;;;;;;;;;;;;;;;;;;351527;28;913;-78
2022/03/25 00:23:45;;;;;;;;;;;;;;;;;;351552;27;778;-78
2022/03/25 00:23:55;;;;;;;;;;;;;;;;;;351487;28;912;-78
2022/03/25 00:24:06;;;;;;;;;;;;;;;;;;351545;28;790;-78
2022/03/25 00:24:16;;;;;;;;;;;;;;;;;;351475;28;782;-78
2022/03/25 00:24:26;;;;;;;;;;;;;;;;;;351495;28;940;-78
2022/03/25 00:24:37;;;;;;;;;;;;;;;;;;351569;28;766;-78
2022/03/25 00:24:47;;;;;;;;;;;;;;;;;;351515;28;917;-78
2022/03/25 00:24:57;;;;;;;;;;;;;;;;;;351473;28;830;-78
2022/03/25 00:25:08;;;;;;;;;;;;;;;;;;351390;28;1045;-78
2022/03/25 00:25:18;;;;;;;;;;;;;;;;;;351547;28;877;-78
2022/03/25 00:25:29;;;;;;;;;;;;;;;;;;351520;28;940;-78
2022/03/25 00:25:39;;;;;;;;;;;;;;;;;;351497;28;976;-78
2022/03/25 00:25:49;;;;;;;;;;;;;;;;;;351432;28;1109;-78
2022/03/25 00:26:01;;;;;;;;;;;;;;;;;;351465;28;920;-78
2022/03/25 00:26:11;;;;;;;;;;;;;;;;;;351526;28;841;-78
2022/03/25 00:26:21;;;;;;;;;;;;;;;;;;351523;28;786;-78
2022/03/25 00:26:32;;;;;;;;;;;;;;;;;;351462;28;944;-76
2022/03/25 00:26:42;;;;;;;;;;;;;;;;;;351400;28;1278;-77
2022/03/25 00:26:52;;;;;;;;;;;;;;;;;;351481;28;909;-76
2022/03/25 00:27:04;;;;;;;;;;;;;;;;;;351474;28;790;-77
2022/03/25 00:27:14;;;;;;;;;;;;;;;;;;351497;28;901;-77
2022/03/25 00:27:24;;;;;;;;;;;;;;;;;;351487;28;944;-76
2022/03/25 00:27:35;;;;;;;;;;;;;;;;;;351542;28;806;-77
2022/03/25 00:27:46;;;;;;;;;;;;;;;;;;351521;28;936;-77
2022/03/25 00:27:56;;;;;;;;;;;;;;;;;;351475;28;929;-77
2022/03/25 00:28:07;;;;;;;;;;;;;;;;;;351455;28;913;-76
2022/03/25 00:28:17;;;;;;;;;;;;;;;;;;351514;28;988;-77
2022/03/25 00:28:28;;;;;;;;;;;;;;;;;;351519;28;802;-77
2022/03/25 00:28:38;;;;;;;;;;;;;;;;;;351526;28;913;-77
2022/03/25 00:28:49;;;;;;;;;;;;;;;;;;351456;28;992;-77
2022/03/25 00:28:59;;;;;;;;;;;;;;;;;;351410;28;883;-77
2022/03/25 00:29:09;;;;;;;;;;;;;;;;;;351492;28;905;-77
2022/03/25 00:29:20;;;;;;;;;;;;;;;;;;351567;28;856;-77
2022/03/25 00:29:30;;;;;;;;;;;;;;;;;;351477;28;923;-77
2022/03/25 00:29:40;;;;;;;;;;;;;;;;;;351534;28;908;-77
2022/03/25 00:29:51;;;;;;;;;;;;;;;;;;350358;28;1792;-76
2022/03/25 00:30:02;;;;;;;;;;;;;;;;;;350976;28;1724;-76
2022/03/25 00:30:12;;;;;;;;;;;;;;;;;;351493;28;975;-77
2022/03/25 00:30:22;;;;;;;;;;;;;;;;;;351514;27;776;-77
2022/03/25 00:30:33;;;;;;;;;;;;;;;;;;351456;28;988;-76
2022/03/25 00:30:43;;;;;;;;;;;;;;;;;;351498;28;857;-76
2022/03/25 00:30:53;;;;;;;;;;;;;;;;;;351468;28;836;-77
2022/03/25 00:31:06;;;;;;;;;;;;;;;;;;351382;28;982;-77
2022/03/25 00:31:17;;;;;;;;;;;;;;;;;;351482;28;1038;-76
2022/03/25 00:31:27;;;;;;;;;;;;;;;;;;351493;28;928;-77
2022/03/25 00:31:37;;;;;;;;;;;;;;;;;;351446;28;920;-77
2022/03/25 00:31:47;;;;;;;;;;;;;;;;;;351499;28;786;-76
2022/03/25 00:31:58;;;;;;;;;;;;;;;;;;351514;28;959;-77
2022/03/25 00:32:08;;;;;;;;;;;;;;;;;;351519;28;833;-77
2022/03/25 00:32:20;;;;;;;;;;;;;;;;;;351429;28;1031;-77
2022/03/25 00:32:30;;;;;;;;;;;;;;;;;;351513;28;873;-77
2022/03/25 00:32:40;;;;;;;;;;;;;;;;;;351503;28;928;-76
2022/03/25 00:32:51;;;;;;;;;;;;;;;;;;351504;28;829;-76
2022/03/25 00:33:01;;;;;;;;;;;;;;;;;;351412;28;1898;-76
2022/03/25 00:33:11;;;;;;;;;;;;;;;;;;351410;28;1074;-76
2022/03/25 00:33:21;;;;;;;;;;;;;;;;;;351532;28;995;-76
2022/03/25 00:33:32;;;;;;;;;;;;;;;;;;351527;28;873;-77
2022/03/25 00:33:43;;;;;;;;;;;;;;;;;;351381;28;1153;-77
2022/03/25 00:33:54;;;;;;;;;;;;;;;;;;351547;28;809;-76
2022/03/25 00:34:04;;;;;;;;;;;;;;;;;;351455;28;929;-77
2022/03/25 00:34:14;;;;;;;;;;;;;;;;;;350868;28;1776;-76
2022/03/25 00:34:24;;;;;;;;;;;;;;;;;;350406;28;1645;-76
2022/03/25 00:34:34;;;;;;;;;;;;;;;;;;351468;28;1067;-77
2022/03/25 00:34:45;;;;;;;;;;;;;;;;;;351504;28;928;-76
2022/03/25 00:34:55;;;;;;;;;;;;;;;;;;351532;28;900;-76
2022/03/25 00:35:06;;;;;;;;;;;;;;;;;;351448;28;793;-76
2022/03/25 00:35:17;;;;;;;;;;;;;;;;;;351484;28;893;-76
2022/03/25 00:35:27;;;;;;;;;;;;;;;;;;351473;28;987;-76
2022/03/25 00:35:38;;;;;;;;;;;;;;;;;;351480;28;945;-76
2022/03/25 00:35:48;;;;;;;;;;;;;;;;;;351436;28;959;-76
2022/03/25 00:35:58;;;;;;;;;;;;;;;;;;351513;28;916;-76
2022/03/25 00:36:10;;;;;;;;;;;;;;;;;;351449;28;933;-76
2022/03/25 00:36:23;;;;;;;;;;;;;;;;;;351453;27;1015;-76
2022/03/25 00:36:33;;;;;;;;;;;;;;;;;;351496;28;976;-76
2022/03/25 00:36:44;;;;;;;;;;;;;;;;;;351281;28;865;-76
2022/03/25 00:36:54;;;;;;;;;;;;;;;;;;350835;28;1638;-77
2022/03/25 00:37:04;;;;;;;;;;;;;;;;;;349829;28;976;-77
2022/03/25 00:37:15;;;;;;;;;;;;;;;;;;350038;28;1624;-76
2022/03/25 00:37:25;;;;;;;;;;;;;;;;;;351194;28;983;-76
2022/03/25 00:37:36;;;;;;;;;;;;;;;;;;351204;28;1245;-76
2022/03/25 00:37:46;;;;;;;;;;;;;;;;;;351471;28;1035;-76
2022/03/25 00:37:58;;;;;;;;;;;;;;;;;;351447;28;904;-77
2022/03/25 00:38:08;;;;;;;;;;;;;;;;;;351486;28;948;-76
2022/03/25 00:38:19;;;;;;;;;;;;;;;;;;351450;28;1137;-76
2022/03/25 00:38:29;;;;;;;;;;;;;;;;;;351462;28;925;-77
2022/03/25 00:38:40;;;;;;;;;;;;;;;;;;351509;28;1012;-76
2022/03/25 00:38:50;;;;;;;;;;;;;;;;;;351497;28;932;-77
2022/03/25 00:39:00;;;;;;;;;;;;;;;;;;351460;28;901;-77
2022/03/25 00:39:11;;;;;;;;;;;;;;;;;;351276;28;1389;-76
2022/03/25 00:39:21;;;;;;;;;;;;;;;;;;351473;28;929;-76
2022/03/25 00:39:31;;;;;;;;;;;;;;;;;;351421;28;897;-77
2022/03/25 00:39:41;;;;;;;;;;;;;;;;;;351502;28;929;-76
2022/03/25 00:39:52;;;;;;;;;;;;;;;;;;351509;28;972;-76
2022/03/25 00:40:03;;;;;;;;;;;;;;;;;;351456;28;940;-76
2022/03/25 00:40:13;;;;;;;;;;;;;;;;;;351548;28;845;-76
2022/03/25 00:40:24;;;;;;;;;;;;;;;;;;351527;28;928;-77
2022/03/25 00:40:35;;;;;;;;;;;;;;;;;;351507;28;828;-77
2022/03/25 00:40:45;;;;;;;;;;;;;;;;;;351461;28;792;-77
2022/03/25 00:40:55;;;;;;;;;;;;;;;;;;351516;28;964;-76
2022/03/25 00:41:06;;;;;;;;;;;;;;;;;;351491;28;1008;-77
2022/03/25 00:41:16;;;;;;;;;;;;;;;;;;351058;28;1831;-76
2022/03/25 00:41:27;;;;;;;;;;;;;;;;;;350953;28;1761;-76
2022/03/25 00:41:37;;;;;;;;;;;;;;;;;;350062;28;1740;-76
2022/03/25 00:41:47;;;;;;;;;;;;;;;;;;350058;28;1832;-77
2022/03/25 00:41:57;;;;;;;;;;;;;;;;;;349999;28;1728;-77
2022/03/25 00:42:09;;;;;;;;;;;;;;;;;;350946;28;1753;-77
2022/03/25 00:42:19;;;;;;;;;;;;;;;;;;351449;28;1020;-77
2022/03/25 00:42:30;;;;;;;;;;;;;;;;;;351361;28;1158;-77
2022/03/25 00:42:40;;;;;;;;;;;;;;;;;;351494;28;937;-76
2022/03/25 00:42:51;;;;;;;;;;;;;;;;;;351448;28;917;-77
2022/03/25 00:43:01;;;;;;;;;;;;;;;;;;351431;28;984;-76
2022/03/25 00:43:11;;;;;;;;;;;;;;;;;;351466;28;857;-76
2022/03/25 00:43:22;;;;;;;;;;;;;;;;;;351454;28;781;-77
2022/03/25 00:43:34;;;;;;;;;;;;;;;;;;351392;28;980;-76
2022/03/25 00:43:46;;;;;;;;;;;;;;;;;;351495;28;788;-76
2022/03/25 00:43:56;;;;;;;;;;;;;;;;;;351495;28;877;-76
2022/03/25 00:44:07;;;;;;;;;;;;;;;;;;351420;28;980;-77
2022/03/25 00:44:18;;;;;;;;;;;;;;;;;;351456;28;988;-77
2022/03/25 00:44:28;;;;;;;;;;;;;;;;;;351515;28;996;-76
2022/03/25 00:44:38;;;;;;;;;;;;;;;;;;351496;28;794;-76
2022/03/25 00:44:49;;;;;;;;;;;;;;;;;;351437;28;964;-76
2022/03/25 00:45:02;;;;;;;;;;;;;;;;;;351477;28;952;-76
2022/03/25 00:45:12;;;;;;;;;;;;;;;;;;351497;28;991;-76
2022/03/25 00:45:22;;;;;;;;;;;;;;;;;;351402;28;988;-77
2022/03/25 00:45:33;;;;;;;;;;;;;;;;;;351442;28;1657;-76
2022/03/25 00:45:43;;;;;;;;;;;;;;;;;;350361;28;1775;-76
2022/03/25 00:45:54;;;;;;;;;;;;;;;;;;350030;28;890;-77
2022/03/25 00:46:04;;;;;;;;;;;;;;;;;;350083;28;924;-76
2022/03/25 00:46:15;;;;;;;;;;;;;;;;;;350058;28;980;-76
2022/03/25 00:46:27;;;;;;;;;;;;;;;;;;349971;28;924;-77
2022/03/25 00:46:37;;;;;;;;;;;;;;;;;;350091;28;976;-76
2022/03/25 00:46:48;;;;;;;;;;;;;;;;;;350119;28;933;-77
2022/03/25 00:46:58;;;;;;;;;;;;;;;;;;350053;28;853;-76
2022/03/25 00:47:09;;;;;;;;;;;;;;;;;;350075;28;984;-76
2022/03/25 00:47:20;;;;;;;;;;;;;;;;;;350098;28;928;-77
2022/03/25 00:47:30;;;;;;;;;;;;;;;;;;350000;28;1051;-76
2022/03/25 00:47:41;;;;;;;;;;;;;;;;;;350043;28;921;-76
2022/03/25 00:47:51;;;;;;;;;;;;;;;;;;350073;28;1008;-77
2022/03/25 00:48:01;;;;;;;;;;;;;;;;;;350052;28;921;-76
2022/03/25 00:48:11;;;;;;;;;;;;;;;;;;350081;28;933;-76
2022/03/25 00:48:21;;;;;;;;;;;;;;;;;;350034;28;1050;-76
2022/03/25 00:48:32;;;;;;;;;;;;;;;;;;350036;28;984;-75
2022/03/25 00:48:42;;;;;;;;;;;;;;;;;;350146;28;805;-75
2022/03/25 00:48:52;;;;;;;;;;;;;;;;;;350098;28;795;-75
2022/03/25 00:49:04;;;;;;;;;;;;;;;;;;350067;28;948;-75
2022/03/25 00:49:14;;;;;;;;;;;;;;;;;;350117;28;975;-75
2022/03/25 00:49:24;;;;;;;;;;;;;;;;;;350091;28;786;-75
2022/03/25 00:49:35;;;;;;;;;;;;;;;;;;350065;28;897;-75
2022/03/25 00:49:45;;;;;;;;;;;;;;;;;;350010;28;991;-75
2022/03/25 00:49:56;;;;;;;;;;;;;;;;;;350094;28;980;-75
2022/03/25 00:50:06;;;;;;;;;;;;;;;;;;350045;28;909;-76
2022/03/25 00:50:17;;;;;;;;;;;;;;;;;;350074;28;929;-75
2022/03/25 00:50:27;;;;;;;;;;;;;;;;;;350015;28;972;-75
2022/03/25 00:50:37;;;;;;;;;;;;;;;;;;350094;28;850;-75
2022/03/25 00:50:47;;;;;;;;;;;;;;;;;;350022;28;929;-75
2022/03/25 00:50:57;;;;;;;;;;;;;;;;;;350068;28;988;-75
2022/03/25 00:51:08;;;;;;;;;;;;;;;;;;350074;28;937;-76
2022/03/25 00:51:19;;;;;;;;;;;;;;;;;;350063;28;917;-75
2022/03/25 00:51:29;;;;;;;;;;;;;;;;;;349990;28;921;-75
2022/03/25 00:51:39;;;;;;;;;;;;;;;;;;350139;28;991;-76
2022/03/25 00:51:50;;;;;;;;;;;;;;;;;;350005;28;1069;-75
2022/03/25 00:52:00;;;;;;;;;;;;;;;;;;350013;28;944;-75
2022/03/25 00:52:10;;;;;;;;;;;;;;;;;;350052;28;1078;-75
2022/03/25 00:52:20;;;;;;;;;;;;;;;;;;350086;28;996;-75
2022/03/25 00:52:31;;;;;;;;;;;;;;;;;;350055;28;949;-75
2022/03/25 00:52:41;;;;;;;;;;;;;;;;;;350064;28;968;-75
2022/03/25 00:52:51;;;;;;;;;;;;;;;;;;350027;28;860;-75
2022/03/25 00:53:01;;;;;;;;;;;;;;;;;;349991;28;1906;-75
2022/03/25 00:53:12;;;;;;;;;;;;;;;;;;350100;28;912;-75
2022/03/25 00:53:22;;;;;;;;;;;;;;;;;;350091;28;1004;-75
2022/03/25 00:53:32;;;;;;;;;;;;;;;;;;350007;28;925;-75
2022/03/25 00:53:42;;;;;;;;;;;;;;;;;;350143;28;833;-75
2022/03/25 00:53:52;;;;;;;;;;;;;;;;;;350094;28;968;-75
2022/03/25 00:54:03;;;;;;;;;;;;;;;;;;350026;28;995;-75
2022/03/25 00:54:14;;;;;;;;;;;;;;;;;;351961;28;1386;-76
2022/03/25 00:54:24;;;;;;;;;;;;;;;;;;352890;28;998;-75
2022/03/25 00:54:36;;;;;;;;;;;;;;;;;;352851;28;1021;-75
2022/03/25 00:54:46;;;;;;;;;;;;;;;;;;352846;28;1043;-75
2022/03/25 00:54:56;;;;;;;;;;;;;;;;;;352841;28;975;-75
2022/03/25 00:55:07;;;;;;;;;;;;;;;;;;352913;28;838;-75
2022/03/25 00:55:18;;;;;;;;;;;;;;;;;;352832;28;892;-75
2022/03/25 00:55:28;;;;;;;;;;;;;;;;;;350903;28;1776;-75
2022/03/25 00:55:38;;;;;;;;;;;;;;;;;;349998;28;1839;-75
2022/03/25 00:55:48;;;;;;;;;;;;;;;;;;349938;28;1681;-75
2022/03/25 00:56:03;;;;;;;;;;;;;;;;;;351077;28;1717;-75
2022/03/25 00:56:13;;;;;;;;;;;;;;;;;;351442;28;909;-75
2022/03/25 00:56:24;;;;;;;;;;;;;;;;;;351430;28;890;-75
2022/03/25 00:56:34;;;;;;;;;;;;;;;;;;351446;28;917;-75
2022/03/25 00:56:44;;;;;;;;;;;;;;;;;;351463;28;991;-75
2022/03/25 00:56:55;;;;;;;;;;;;;;;;;;351499;28;845;-75
2022/03/25 00:57:05;;;;;;;;;;;;;;;;;;351449;28;865;-75
2022/03/25 00:57:16;;;;;;;;;;;;;;;;;;351443;28;977;-75
2022/03/25 00:57:27;;;;;;;;;;;;;;;;;;351420;28;1008;-75
2022/03/25 00:57:37;;;;;;;;;;;;;;;;;;351464;28;790;-75
2022/03/25 00:57:47;;;;;;;;;;;;;;;;;;351422;28;925;-76
2022/03/25 00:57:58;;;;;;;;;;;;;;;;;;351484;28;1027;-75
2022/03/25 00:58:08;;;;;;;;;;;;;;;;;;351424;28;905;-75
2022/03/25 00:58:19;;;;;;;;;;;;;;;;;;351511;28;829;-75
2022/03/25 00:58:30;;;;;;;;;;;;;;;;;;351217;28;1052;-76
2022/03/25 00:58:40;;;;;;;;;;;;;;;;;;351458;28;945;-75
2022/03/25 00:58:51;;;;;;;;;;;;;;;;;;351474;28;972;-75
2022/03/25 00:59:01;;;;;;;;;;;;;;;;;;351462;28;880;-75
2022/03/25 00:59:12;;;;;;;;;;;;;;;;;;351473;28;964;-75
2022/03/25 00:59:22;;;;;;;;;;;;;;;;;;351479;28;913;-75
2022/03/25 00:59:33;;;;;;;;;;;;;;;;;;351475;28;877;-75
2022/03/25 00:59:43;;;;;;;;;;;;;;;;;;351484;28;857;-75
2022/03/25 00:59:53;;;;;;;;;;;;;;;;;;351424;28;996;-75
2022/03/25 01:00:04;;;;;;;;;;;;;;;;;;351512;28;916;-75
2022/03/25 01:00:14;;;;;;;;;;;;;;;;;;351378;28;972;-75
2022/03/25 01:00:25;;;;;;;;;;;;;;;;;;351118;28;1616;-75
2022/03/25 01:00:35;;;;;;;;;;;;;;;;;;349971;28;1003;-75
2022/03/25 01:00:45;;;;;;;;;;;;;;;;;;349986;28;1012;-75
2022/03/25 01:00:56;;;;;;;;;;;;;;;;;;350048;28;925;-75
2022/03/25 01:01:06;;;;;;;;;;;;;;;;;;349988;28;1078;-75
2022/03/25 01:01:16;;;;;;;;;;;;;;;;;;350042;28;937;-75
2022/03/25 01:01:27;;;;;;;;;;;;;;;;;;350057;28;1016;-75
2022/03/25 01:01:38;;;;;;;;;;;;;;;;;;349936;28;1080;-75
2022/03/25 01:01:48;;;;;;;;;;;;;;;;;;350074;28;932;-75
2022/03/25 01:02:00;;;;;;;;;;;;;;;;;;350056;28;850;-75
2022/03/25 01:02:10;;;;;;;;;;;;;;;;;;350082;28;802;-75
2022/03/25 01:02:21;;;;;;;;;;;;;;;;;;350053;28;940;-75
2022/03/25 01:02:31;;;;;;;;;;;;;;;;;;349974;28;964;-75
2022/03/25 01:02:41;;;;;;;;;;;;;;;;;;349991;28;905;-75
2022/03/25 01:02:52;;;;;;;;;;;;;;;;;;350104;28;913;-75
2022/03/25 01:03:02;;;;;;;;;;;;;;;;;;350095;28;849;-75
2022/03/25 01:03:12;;;;;;;;;;;;;;;;;;349924;28;990;-75
2022/03/25 01:03:22;;;;;;;;;;;;;;;;;;350014;28;1019;-75
2022/03/25 01:03:34;;;;;;;;;;;;;;;;;;350068;28;968;-75
2022/03/25 01:03:44;;;;;;;;;;;;;;;;;;349980;28;889;-75
2022/03/25 01:03:54;;;;;;;;;;;;;;;;;;350090;28;936;-75
2022/03/25 01:04:04;;;;;;;;;;;;;;;;;;350070;28;976;-75
2022/03/25 01:04:16;;;;;;;;;;;;;;;;;;350023;28;917;-75
2022/03/25 01:04:27;;;;;;;;;;;;;;;;;;350001;28;940;-75
2022/03/25 01:04:37;;;;;;;;;;;;;;;;;;350072;28;929;-75
2022/03/25 01:04:48;;;;;;;;;;;;;;;;;;349985;28;917;-75
2022/03/25 01:04:59;;;;;;;;;;;;;;;;;;350099;28;830;-75
2022/03/25 01:05:09;;;;;;;;;;;;;;;;;;350062;28;940;-75
2022/03/25 01:05:19;;;;;;;;;;;;;;;;;;350030;28;790;-75
2022/03/25 01:05:29;;;;;;;;;;;;;;;;;;350042;28;806;-75
2022/03/25 01:05:40;;;;;;;;;;;;;;;;;;350066;28;992;-75
2022/03/25 01:05:50;;;;;;;;;;;;;;;;;;350047;28;830;-75
2022/03/25 01:06:01;;;;;;;;;;;;;;;;;;350059;28;889;-75
2022/03/25 01:06:11;;;;;;;;;;;;;;;;;;350027;28;977;-75
2022/03/25 01:06:21;;;;;;;;;;;;;;;;;;350060;28;817;-75
2022/03/25 01:06:31;;;;;;;;;;;;;;;;;;350002;28;1019;-75
2022/03/25 01:06:43;;;;;;;;;;;;;;;;;;349994;28;976;-76
2022/03/25 01:06:53;;;;;;;;;;;;;;;;;;350081;28;791;-75
2022/03/25 01:07:04;;;;;;;;;;;;;;;;;;349973;28;1548;-75
2022/03/25 01:07:14;;;;;;;;;;;;;;;;;;351345;28;1484;-75
2022/03/25 01:07:25;;;;;;;;;;;;;;;;;;350488;28;1558;-76
2022/03/25 01:07:35;;;;;;;;;;;;;;;;;;351249;28;1551;-75
2022/03/25 01:07:45;;;;;;;;;;;;;;;;;;351424;28;908;-75
2022/03/25 01:07:55;;;;;;;;;;;;;;;;;;351386;28;1155;-75
2022/03/25 01:08:07;;;;;;;;;;;;;;;;;;351406;28;865;-75
2022/03/25 01:08:17;;;;;;;;;;;;;;;;;;350296;28;1831;-75
2022/03/25 01:08:27;;;;;;;;;;;;;;;;;;350630;28;1665;-75
2022/03/25 01:08:38;;;;;;;;;;;;;;;;;;351176;28;1544;-75
2022/03/25 01:08:48;;;;;;;;;;;;;;;;;;351222;28;1444;-75
2022/03/25 01:08:58;;;;;;;;;;;;;;;;;;350421;28;1780;-75
2022/03/25 01:09:08;;;;;;;;;;;;;;;;;;351428;28;1484;-75
2022/03/25 01:09:19;;;;;;;;;;;;;;;;;;351110;28;1381;-75
2022/03/25 01:09:29;;;;;;;;;;;;;;;;;;351325;28;1563;-75
2022/03/25 01:09:39;;;;;;;;;;;;;;;;;;351377;28;1510;-75
2022/03/25 01:09:49;;;;;;;;;;;;;;;;;;351453;28;837;-75
2022/03/25 01:10:00;;;;;;;;;;;;;;;;;;351468;28;1011;-75
2022/03/25 01:10:11;;;;;;;;;;;;;;;;;;351382;28;996;-75
2022/03/25 01:10:23;;;;;;;;;;;;;;;;;;351453;28;953;-75
2022/03/25 01:10:34;;;;;;;;;;;;;;;;;;351423;28;936;-75
2022/03/25 01:10:44;;;;;;;;;;;;;;;;;;351404;28;813;-75
2022/03/25 01:10:54;;;;;;;;;;;;;;;;;;351411;28;928;-75
2022/03/25 01:11:04;;;;;;;;;;;;;;;;;;351416;28;936;-75
2022/03/25 01:11:15;;;;;;;;;;;;;;;;;;351509;28;822;-75
2022/03/25 01:11:26;;;;;;;;;;;;;;;;;;351477;28;881;-75
2022/03/25 01:11:36;;;;;;;;;;;;;;;;;;351445;28;941;-75
2022/03/25 01:11:47;;;;;;;;;;;;;;;;;;351462;28;1000;-75
2022/03/25 01:11:57;;;;;;;;;;;;;;;;;;351380;28;884;-76
2022/03/25 01:12:08;;;;;;;;;;;;;;;;;;351405;28;964;-76
2022/03/25 01:12:21;;;;;;;;;;;;;;;;;;351446;28;925;-75
2022/03/25 01:12:31;;;;;;;;;;;;;;;;;;351420;28;1016;-75
2022/03/25 01:12:41;;;;;;;;;;;;;;;;;;351487;28;912;-75
2022/03/25 01:12:52;;;;;;;;;;;;;;;;;;351381;28;956;-75
2022/03/25 01:13:03;;;;;;;;;;;;;;;;;;351409;28;1969;-75
2022/03/25 01:13:13;;;;;;;;;;;;;;;;;;351422;28;933;-75
2022/03/25 01:13:23;;;;;;;;;;;;;;;;;;351480;28;873;-75
2022/03/25 01:13:33;;;;;;;;;;;;;;;;;;351390;28;1199;-75
2022/03/25 01:13:44;;;;;;;;;;;;;;;;;;351309;28;1012;-75
2022/03/25 01:13:55;;;;;;;;;;;;;;;;;;351405;28;921;-75
2022/03/25 01:14:06;;;;;;;;;;;;;;;;;;351483;28;834;-75
2022/03/25 01:14:16;;;;;;;;;;;;;;;;;;351444;28;968;-75
2022/03/25 01:14:27;;;;;;;;;;;;;;;;;;351451;28;794;-75
2022/03/25 01:14:37;;;;;;;;;;;;;;;;;;351415;28;869;-75
2022/03/25 01:14:47;;;;;;;;;;;;;;;;;;351369;28;960;-75
2022/03/25 01:14:58;;;;;;;;;;;;;;;;;;351445;28;913;-75